Temp: 0.3°C   Baro: 1049.5mb
  Wind: 0.0mph   Dir: NW (316°)
  Rain: 0.0mm (0.0mm/hr)
  Solar: 0W/m2  Hum: 94%
 
Bath Spa Weather Historical Data
Daily Summary for January 15, 2020 Units:  Metric    English   Both
Next Day »
Daily Weekly Monthly Yearly Custom
  High: Low: Average:
Temperature: 9.6 °C 6.6 °C 7.7 °C
Dew Point: 7.1 °C 3.7 °C 5.4 °C
Humidity: 95% 74% 86%
Wind Speed: 22.7km/h 0.0km/h 6.3km/h
Wind Gust: 35.4km/h - -
Wind direction- - WSW
Pressure: 1016.5 hPa 995.1 hPa -
Precipitation: 2.3 mm    
Historical Graphs
 
 
Tabular Data for January 15, 2020
Time Temperature Dew Point Pressure Wind direction Wind Speed Wind Gust Humidity Rainfall Rate (Hourly) solar
00:00 7.9 °C 7.1 °C 995.1 hPa WNW 9.7 km/h 17.7 km/h 95% 1.0 mm 0.00 W/m2
00:05 7.9 °C 7.1 °C 995.5 hPa NW 11.1 km/h 17.7 km/h 95% 1.3 mm 0.00 W/m2
00:10 7.6 °C 6.9 °C 995.5 hPa NW 7.9 km/h 16.1 km/h 95% 1.5 mm 0.00 W/m2
00:16 7.6 °C 6.9 °C 995.8 hPa NNW 6.4 km/h 12.9 km/h 95% 1.5 mm 0.00 W/m2
00:20 7.6 °C 6.9 °C 995.5 hPa WNW 3.2 km/h 11.3 km/h 95% 1.5 mm 0.00 W/m2
00:25 7.6 °C 6.9 °C 995.5 hPa West 4.7 km/h 6.4 km/h 95% 1.5 mm 0.00 W/m2
00:30 7.6 °C 6.9 °C 995.8 hPa NW 3.2 km/h 9.7 km/h 95% 1.5 mm 0.00 W/m2
00:35 7.6 °C 6.9 °C 995.8 hPa West 3.2 km/h 8.0 km/h 95% 1.5 mm 0.00 W/m2
00:40 7.6 °C 6.9 °C 995.8 hPa NW 6.4 km/h 9.7 km/h 95% 1.5 mm 0.00 W/m2
00:45 7.6 °C 6.9 °C 995.8 hPa West 7.9 km/h 11.3 km/h 95% 1.5 mm 0.00 W/m2
00:50 7.5 °C 6.8 °C 996.2 hPa West 3.2 km/h 12.9 km/h 95% 1.5 mm 0.00 W/m2
00:55 7.4 °C 6.7 °C 996.2 hPa WNW 7.9 km/h 17.7 km/h 95% 1.5 mm 0.00 W/m2
01:00 7.4 °C 6.7 °C 996.2 hPa WNW 6.4 km/h 11.3 km/h 95% 1.3 mm 0.00 W/m2
01:05 7.4 °C 6.7 °C 996.2 hPa West 9.7 km/h 11.3 km/h 95% 1.0 mm 0.00 W/m2
01:10 7.4 °C 6.7 °C 996.5 hPa West 7.9 km/h 11.3 km/h 95% 0.8 mm 0.00 W/m2
01:15 7.4 °C 6.7 °C 996.8 hPa West 6.4 km/h 11.3 km/h 95% 0.5 mm 0.00 W/m2
01:20 7.4 °C 6.7 °C 996.8 hPa West 4.7 km/h 11.3 km/h 95% 0.5 mm 0.00 W/m2
01:25 7.4 °C 6.7 °C 996.8 hPa West 9.7 km/h 12.9 km/h 95% 0.3 mm 0.00 W/m2
01:30 7.3 °C 6.6 °C 997.2 hPa WNW 9.7 km/h 19.3 km/h 95% 0.5 mm 0.00 W/m2
01:35 7.1 °C 6.4 °C 997.2 hPa WNW 9.7 km/h 17.7 km/h 95% 0.5 mm 0.00 W/m2
01:40 7.1 °C 6.4 °C 997.2 hPa NW 7.9 km/h 11.3 km/h 95% 0.5 mm 0.00 W/m2
01:45 7.0 °C 6.3 °C 997.2 hPa West 9.7 km/h 14.5 km/h 95% 0.5 mm 0.00 W/m2
01:50 7.0 °C 6.3 °C 997.5 hPa West 7.9 km/h 14.5 km/h 95% 0.5 mm 0.00 W/m2
01:55 7.0 °C 6.3 °C 997.2 hPa West 4.7 km/h 8.0 km/h 95% 0.3 mm 0.00 W/m2
02:00 7.0 °C 6.3 °C 997.5 hPa WNW 7.9 km/h 14.5 km/h 95% 0.3 mm 0.00 W/m2
02:05 7.0 °C 6.3 °C 997.9 hPa NW 4.7 km/h 8.0 km/h 95% 0.3 mm 0.00 W/m2
02:10 7.0 °C 6.3 °C 997.9 hPa WNW 6.4 km/h 8.0 km/h 95% 0.5 mm 0.00 W/m2
02:15 7.0 °C 6.3 °C 997.9 hPa WNW 1.4 km/h 6.4 km/h 95% 0.5 mm 0.00 W/m2
02:20 7.0 °C 6.3 °C 997.9 hPa WNW 7.9 km/h 11.3 km/h 95% 0.5 mm 0.00 W/m2
02:25 7.0 °C 6.3 °C 997.9 hPa West 11.1 km/h 12.9 km/h 95% 0.5 mm 0.00 W/m2
02:30 7.0 °C 6.3 °C 997.9 hPa WNW 3.2 km/h 11.3 km/h 95% 0.3 mm 0.00 W/m2
02:35 7.1 °C 6.2 °C 998.2 hPa West 4.7 km/h 8.0 km/h 94% 0.3 mm 0.00 W/m2
02:41 7.0 °C 6.1 °C 998.2 hPa WNW 7.9 km/h 11.3 km/h 94% 0.3 mm 0.00 W/m2
02:45 7.1 °C 6.2 °C 998.2 hPa WNW 4.7 km/h 9.7 km/h 94% 0.3 mm 0.00 W/m2
02:50 7.1 °C 6.4 °C 998.2 hPa West 6.4 km/h 14.5 km/h 95% 0.3 mm 0.00 W/m2
02:55 7.1 °C 6.2 °C 998.2 hPa WNW 1.4 km/h 9.7 km/h 94% 0.3 mm 0.00 W/m2
03:00 7.1 °C 6.2 °C 998.5 hPa WNW 3.2 km/h 11.3 km/h 94% 0.3 mm 0.00 W/m2
03:05 7.1 °C 6.2 °C 998.5 hPa West 9.7 km/h 11.3 km/h 94% 0.3 mm 0.00 W/m2
03:10 7.1 °C 6.2 °C 998.5 hPa West 1.4 km/h 6.4 km/h 94% 0.0 mm 0.00 W/m2
03:15 7.1 °C 6.2 °C 998.2 hPa NW 1.4 km/h 4.8 km/h 94% 0.0 mm 0.00 W/m2
03:20 7.1 °C 6.2 °C 998.5 hPa WNW 1.4 km/h 6.4 km/h 94% 0.0 mm 0.00 W/m2
03:25 7.1 °C 6.2 °C 998.5 hPa WNW 4.7 km/h 8.0 km/h 94% 0.0 mm 0.00 W/m2
03:30 7.0 °C 6.1 °C 998.2 hPa West 1.4 km/h 4.8 km/h 94% 0.0 mm 0.00 W/m2
03:35 7.1 °C 6.2 °C 998.2 hPa West 1.4 km/h 4.8 km/h 94% 0.0 mm 0.00 W/m2
03:40 7.0 °C 6.1 °C 998.2 hPa Calm   1.6 km/h 94% 0.0 mm 0.00 W/m2
03:45 7.0 °C 6.1 °C 998.2 hPa Calm     94% 0.0 mm 0.00 W/m2
03:50 7.0 °C 6.1 °C 998.2 hPa West 1.4 km/h 1.6 km/h 94% 0.0 mm 0.00 W/m2
03:55 7.0 °C 6.1 °C 998.2 hPa Calm   3.2 km/h 94% 0.0 mm 0.00 W/m2
04:00 6.9 °C 6.0 °C 998.2 hPa Calm   3.2 km/h 94% 0.0 mm 0.00 W/m2
04:05 7.0 °C 6.1 °C 998.5 hPa Calm   1.6 km/h 94% 0.0 mm 0.00 W/m2
04:10 6.9 °C 6.0 °C 998.5 hPa West 3.2 km/h 4.8 km/h 94% 0.0 mm 0.00 W/m2
04:15 6.9 °C 6.0 °C 998.9 hPa Calm   3.2 km/h 94% 0.0 mm 0.00 W/m2
04:20 6.9 °C 6.0 °C 998.9 hPa Calm   4.8 km/h 94% 0.0 mm 0.00 W/m2
04:25 6.9 °C 6.0 °C 998.9 hPa Calm     94% 0.0 mm 0.00 W/m2
04:30 6.9 °C 6.0 °C 998.9 hPa WSW 3.2 km/h 4.8 km/h 94% 0.0 mm 0.00 W/m2
04:35 7.0 °C 6.1 °C 999.2 hPa WNW 3.2 km/h 8.0 km/h 94% 0.0 mm 0.00 W/m2
04:40 7.0 °C 6.1 °C 998.9 hPa WNW 1.4 km/h 3.2 km/h 94% 0.0 mm 0.00 W/m2
04:45 7.0 °C 6.1 °C 999.2 hPa SW 1.4 km/h 6.4 km/h 94% 0.0 mm 0.00 W/m2
04:50 7.0 °C 6.1 °C 999.2 hPa West 3.2 km/h 6.4 km/h 94% 0.0 mm 0.00 W/m2
04:55 7.0 °C 6.1 °C 999.2 hPa SW 1.4 km/h 4.8 km/h 94% 0.0 mm 0.00 W/m2
05:00 7.0 °C 6.1 °C 999.5 hPa SW 1.4 km/h 8.0 km/h 94% 0.0 mm 0.00 W/m2
05:05 7.0 °C 6.1 °C 999.5 hPa West 4.7 km/h 11.3 km/h 94% 0.0 mm 0.00 W/m2
05:10 7.1 °C 6.2 °C 999.5 hPa SW 3.2 km/h 9.7 km/h 94% 0.0 mm 0.00 W/m2
05:15 7.1 °C 6.0 °C 999.5 hPa West 7.9 km/h 11.3 km/h 93% 0.0 mm 0.00 W/m2
05:20 7.2 °C 6.1 °C 999.5 hPa West 4.7 km/h 6.4 km/h 93% 0.0 mm 0.00 W/m2
05:25 7.2 °C 6.1 °C 999.5 hPa WSW 1.4 km/h 6.4 km/h 93% 0.0 mm 0.00 W/m2
05:30 7.2 °C 6.1 °C 999.5 hPa SW 4.7 km/h 6.4 km/h 93% 0.0 mm 0.00 W/m2
05:35 7.2 °C 6.0 °C 999.9 hPa West 6.4 km/h 8.0 km/h 92% 0.0 mm 0.00 W/m2
05:40 7.2 °C 6.0 °C 999.9 hPa WSW 6.4 km/h 8.0 km/h 92% 0.0 mm 0.00 W/m2
05:45 7.3 °C 6.1 °C 999.9 hPa SW 4.7 km/h 6.4 km/h 92% 0.0 mm 0.00 W/m2
05:50 7.3 °C 6.1 °C 999.9 hPa SW 7.9 km/h 9.7 km/h 92% 0.0 mm 0.00 W/m2
05:55 7.3 °C 5.9 °C 999.9 hPa SSW 4.7 km/h 12.9 km/h 91% 0.0 mm 0.00 W/m2
06:00 7.3 °C 5.9 °C 1000.2 hPa SW 4.7 km/h 9.7 km/h 91% 0.3 mm 0.00 W/m2
06:05 7.3 °C 5.9 °C 1000.2 hPa SW 3.2 km/h 16.1 km/h 91% 0.3 mm 0.00 W/m2
06:10 7.3 °C 5.9 °C 1000.2 hPa SW 6.4 km/h 11.3 km/h 91% 0.3 mm 0.00 W/m2
06:15 7.3 °C 5.9 °C 1000.2 hPa West 6.4 km/h 9.7 km/h 91% 0.3 mm 0.00 W/m2
06:20 7.3 °C 5.8 °C 1000.2 hPa West 3.2 km/h 8.0 km/h 90% 0.3 mm 0.00 W/m2
06:25 7.3 °C 5.8 °C 1000.2 hPa SW 4.7 km/h 9.7 km/h 90% 0.3 mm 0.00 W/m2
06:30 7.3 °C 5.8 °C 1000.2 hPa SSW 1.4 km/h 9.7 km/h 90% 0.3 mm 0.00 W/m2
06:35 7.3 °C 5.8 °C 1000.2 hPa SW 1.4 km/h 8.0 km/h 90% 0.3 mm 0.00 W/m2
06:40 7.3 °C 5.8 °C 1000.2 hPa SW 1.4 km/h 6.4 km/h 90% 0.3 mm 0.00 W/m2
06:45 7.3 °C 5.8 °C 1000.2 hPa Calm     90% 0.3 mm 0.00 W/m2
06:50 7.3 °C 5.8 °C 1000.2 hPa SW 1.4 km/h 3.2 km/h 90% 0.3 mm 0.00 W/m2
06:55 7.2 °C 5.7 °C 1000.2 hPa SW 4.7 km/h 6.4 km/h 90% 0.3 mm 0.00 W/m2
07:00 7.2 °C 5.7 °C 1000.2 hPa SW 1.4 km/h 6.4 km/h 90% 0.0 mm 0.00 W/m2
07:05 7.3 °C 5.8 °C 1000.2 hPa SW 4.7 km/h 6.4 km/h 90% 0.0 mm 0.00 W/m2
07:10 7.3 °C 5.8 °C 1000.2 hPa Calm   4.8 km/h 90% 0.0 mm 0.00 W/m2
07:15 7.3 °C 5.9 °C 1000.6 hPa SW 1.4 km/h 1.6 km/h 91% 0.0 mm 0.00 W/m2
07:20 7.3 °C 5.9 °C 1000.6 hPa Calm   3.2 km/h 91% 0.0 mm 0.00 W/m2
07:25 7.2 °C 5.7 °C 1000.6 hPa WNW 3.2 km/h 4.8 km/h 90% 0.0 mm 0.00 W/m2
07:30 7.1 °C 5.6 °C 1000.9 hPa WNW 1.4 km/h 3.2 km/h 90% 0.0 mm 0.00 W/m2
07:35 7.1 °C 5.7 °C 1000.9 hPa WSW 3.2 km/h 6.4 km/h 91% 0.0 mm 0.00 W/m2
07:40 7.1 °C 5.7 °C 1000.9 hPa West 3.2 km/h 4.8 km/h 91% 0.0 mm 0.00 W/m2
07:45 7.1 °C 5.7 °C 1001.2 hPa West 3.2 km/h 4.8 km/h 91% 0.0 mm 0.00 W/m2
07:50 7.1 °C 5.7 °C 1001.2 hPa West 1.4 km/h 6.4 km/h 91% 0.0 mm 0.00 W/m2
07:55 7.1 °C 5.7 °C 1001.2 hPa SSW 3.2 km/h 9.7 km/h 91% 0.0 mm 0.00 W/m2
08:00 7.1 °C 5.7 °C 1001.6 hPa SW 1.4 km/h 4.8 km/h 91% 0.0 mm 0.00 W/m2
08:05 7.2 °C 5.8 °C 1001.9 hPa WSW 3.2 km/h 4.8 km/h 91% 0.0 mm 0.00 W/m2
08:10 7.1 °C 5.7 °C 1001.6 hPa Calm   4.8 km/h 91% 0.0 mm 0.00 W/m2
08:15 7.2 °C 5.8 °C 1001.9 hPa Calm   6.4 km/h 91% 0.0 mm 0.00 W/m2
08:20 7.2 °C 5.8 °C 1001.9 hPa SW 3.2 km/h 8.0 km/h 91% 0.0 mm 0.00 W/m2
08:25 7.3 °C 5.9 °C 1001.9 hPa West 6.4 km/h 11.3 km/h 91% 0.0 mm 5.00 W/m2
08:30 7.4 °C 6.0 °C 1002.3 hPa WSW 4.7 km/h 12.9 km/h 91% 0.0 mm 9.00 W/m2
08:35 7.4 °C 6.0 °C 1002.3 hPa SW 3.2 km/h 9.7 km/h 91% 0.0 mm 9.00 W/m2
08:40 7.4 °C 6.0 °C 1002.3 hPa WSW 3.2 km/h 16.1 km/h 91% 0.0 mm 9.00 W/m2
08:45 7.5 °C 6.0 °C 1002.3 hPa SW 11.1 km/h 17.7 km/h 90% 0.0 mm 9.00 W/m2
08:50 7.6 °C 6.1 °C 1002.3 hPa SSW 9.7 km/h 14.5 km/h 90% 0.0 mm 12.00 W/m2
08:55 7.6 °C 6.1 °C 1002.3 hPa WSW 9.7 km/h 12.9 km/h 90% 0.0 mm 16.00 W/m2
09:00 7.6 °C 6.1 °C 1002.3 hPa WSW 3.2 km/h 12.9 km/h 90% 0.0 mm 19.00 W/m2
09:05 7.7 °C 6.0 °C 1002.3 hPa SW 4.7 km/h 14.5 km/h 89% 0.0 mm 21.00 W/m2
09:10 7.7 °C 6.0 °C 1002.3 hPa WSW 7.9 km/h 12.9 km/h 89% 0.0 mm 18.00 W/m2
09:15 7.7 °C 6.0 °C 1002.9 hPa SW 4.7 km/h 12.9 km/h 89% 0.0 mm 18.00 W/m2
09:20 7.7 °C 6.0 °C 1002.9 hPa SW 7.9 km/h 14.5 km/h 89% 0.0 mm 21.00 W/m2
09:25 7.8 °C 6.1 °C 1002.9 hPa WNW 7.9 km/h 14.5 km/h 89% 0.0 mm 16.00 W/m2
09:31 7.8 °C 6.1 °C 1003.3 hPa SW 7.9 km/h 12.9 km/h 89% 0.0 mm 18.00 W/m2
09:35 7.8 °C 6.1 °C 1003.3 hPa SW 4.7 km/h 11.3 km/h 89% 0.0 mm 23.00 W/m2
09:40 7.8 °C 6.1 °C 1003.3 hPa West 4.7 km/h 9.7 km/h 89% 0.0 mm 39.00 W/m2
09:45 7.8 °C 6.1 °C 1003.3 hPa SW 7.9 km/h 9.7 km/h 89% 0.0 mm 42.00 W/m2
09:50 7.8 °C 5.9 °C 1003.9 hPa SSW 9.7 km/h 17.7 km/h 88% 0.0 mm 42.00 W/m2
09:55 7.9 °C 6.0 °C 1003.9 hPa South 11.1 km/h 14.5 km/h 88% 0.0 mm 49.00 W/m2
10:00 7.9 °C 6.0 °C 1003.9 hPa WSW 16.3 km/h 16.1 km/h 88% 0.0 mm 30.00 W/m2
10:05 7.9 °C 6.0 °C 1003.9 hPa WSW 6.4 km/h 30.6 km/h 88% 0.0 mm 37.00 W/m2
10:11 7.8 °C 5.9 °C 1004.3 hPa West 7.9 km/h 19.3 km/h 88% 0.0 mm 65.00 W/m2
10:15 7.8 °C 5.9 °C 1004.3 hPa West 4.7 km/h 8.0 km/h 88% 0.0 mm 56.00 W/m2
10:20 7.8 °C 5.9 °C 1004.6 hPa SSW 6.4 km/h 11.3 km/h 88% 0.0 mm 67.00 W/m2
10:25 7.9 °C 6.2 °C 1004.6 hPa WSW 4.7 km/h 14.5 km/h 89% 0.0 mm 72.00 W/m2
10:30 7.9 °C 6.2 °C 1005.0 hPa SW 11.1 km/h 12.9 km/h 89% 0.0 mm 54.00 W/m2
10:35 7.9 °C 6.0 °C 1005.0 hPa WSW 9.7 km/h 17.7 km/h 88% 0.0 mm 33.00 W/m2
10:40 7.9 °C 6.0 °C 1005.0 hPa WSW 13.0 km/h 19.3 km/h 88% 0.0 mm 37.00 W/m2
10:45 7.9 °C 6.0 °C 1005.3 hPa SW 9.7 km/h 14.5 km/h 88% 0.0 mm 47.00 W/m2
10:50 7.8 °C 5.8 °C 1005.3 hPa SSW 6.4 km/h 19.3 km/h 87% 0.0 mm 118.00 W/m2
10:56 8.0 °C 6.0 °C 1005.3 hPa West 4.7 km/h 12.9 km/h 87% 0.0 mm 185.00 W/m2
11:00 8.2 °C 6.2 °C 1005.6 hPa West 11.1 km/h 19.3 km/h 87% 0.0 mm 207.00 W/m2
11:05 8.3 °C 6.3 °C 1005.6 hPa WSW 3.2 km/h 17.7 km/h 87% 0.0 mm 128.00 W/m2
11:10 8.4 °C 6.4 °C 1005.6 hPa WSW 11.1 km/h 14.5 km/h 87% 0.0 mm 86.00 W/m2
11:15 8.3 °C 6.3 °C 1005.6 hPa SW 19.5 km/h 22.5 km/h 87% 0.0 mm 58.00 W/m2
11:20 7.5 °C 5.3 °C 1006.0 hPa West 22.7 km/h 35.4 km/h 86% 0.3 mm 42.00 W/m2
11:25 7.1 °C 4.9 °C 1006.3 hPa WSW 9.7 km/h 32.2 km/h 86% 0.3 mm 23.00 W/m2
11:30 6.8 °C 4.6 °C 1006.3 hPa WSW 9.7 km/h 19.3 km/h 86% 0.5 mm 35.00 W/m2
11:35 6.6 °C 4.6 °C 1006.0 hPa WSW 16.3 km/h 17.7 km/h 87% 0.5 mm 137.00 W/m2
11:40 6.9 °C 4.9 °C 1006.0 hPa SW 7.9 km/h 16.1 km/h 87% 0.5 mm 200.00 W/m2
11:45 7.2 °C 5.2 °C 1006.0 hPa WSW 4.7 km/h 9.7 km/h 87% 0.5 mm 202.00 W/m2
11:50 7.3 °C 5.3 °C 1006.0 hPa SSW 3.2 km/h 8.0 km/h 87% 0.5 mm 204.00 W/m2
11:55 7.4 °C 5.4 °C 1006.3 hPa SW 3.2 km/h 12.9 km/h 87% 0.5 mm 207.00 W/m2
12:00 7.6 °C 5.4 °C 1006.3 hPa WSW 7.9 km/h 17.7 km/h 86% 0.5 mm 209.00 W/m2
12:05 8.1 °C 5.9 °C 1006.3 hPa SW 4.7 km/h 14.5 km/h 86% 0.5 mm 211.00 W/m2
12:10 8.2 °C 5.8 °C 1006.3 hPa WNW 3.2 km/h 14.5 km/h 85% 0.5 mm 213.00 W/m2
12:15 8.3 °C 5.8 °C 1006.3 hPa West 4.7 km/h 14.5 km/h 84% 0.5 mm 216.00 W/m2
12:20 8.4 °C 5.9 °C 1006.7 hPa WSW 3.2 km/h 16.1 km/h 84% 0.3 mm 218.00 W/m2
12:25 8.6 °C 6.0 °C 1006.7 hPa WSW 13.0 km/h 20.9 km/h 84% 0.3 mm 216.00 W/m2
12:30 8.8 °C 6.1 °C 1006.7 hPa WSW 7.9 km/h 12.9 km/h 83% 0.0 mm 216.00 W/m2
12:35 8.9 °C 6.2 °C 1006.7 hPa West 11.1 km/h 22.5 km/h 83% 0.3 mm 218.00 W/m2
12:40 9.1 °C 6.0 °C 1006.7 hPa SW 22.7 km/h 25.7 km/h 81% 0.3 mm 216.00 W/m2
12:45 9.1 °C 5.8 °C 1007.0 hPa WSW 14.3 km/h 22.5 km/h 80% 0.3 mm 216.00 W/m2
12:50 9.3 °C 5.8 °C 1007.0 hPa WSW 11.1 km/h 25.7 km/h 79% 0.3 mm 202.00 W/m2
12:55 9.2 °C 5.6 °C 1007.3 hPa West 13.0 km/h 25.7 km/h 78% 0.3 mm 211.00 W/m2
13:00 9.3 °C 5.7 °C 1007.3 hPa WSW 13.0 km/h 24.1 km/h 78% 0.3 mm 213.00 W/m2
13:05 9.4 °C 5.8 °C 1007.3 hPa West 9.7 km/h 17.7 km/h 78% 0.3 mm 221.00 W/m2
13:10 9.5 °C 5.7 °C 1007.3 hPa West 11.1 km/h 22.5 km/h 77% 0.3 mm 271.00 W/m2
13:15 9.5 °C 5.9 °C 1007.3 hPa West 13.0 km/h 19.3 km/h 78% 0.3 mm 250.00 W/m2
13:20 9.6 °C 5.8 °C 1007.7 hPa SW 13.0 km/h 22.5 km/h 77% 0.3 mm 116.00 W/m2
13:25 9.6 °C 6.0 °C 1007.7 hPa SW 9.7 km/h 16.1 km/h 78% 0.3 mm 229.00 W/m2
13:30 9.5 °C 5.7 °C 1007.7 hPa WSW 7.9 km/h 20.9 km/h 77% 0.3 mm 204.00 W/m2
13:35 9.4 °C 5.4 °C 1007.7 hPa WSW 14.3 km/h 19.3 km/h 76% 0.0 mm 199.00 W/m2
13:40 9.5 °C 5.5 °C 1008.0 hPa West 14.3 km/h 24.1 km/h 76% 0.0 mm 185.00 W/m2
13:45 9.4 °C 5.2 °C 1008.0 hPa West 11.1 km/h 22.5 km/h 75% 0.0 mm 53.00 W/m2
13:50 9.3 °C 5.3 °C 1008.0 hPa SW 13.0 km/h 20.9 km/h 76% 0.0 mm 120.00 W/m2
13:55 9.2 °C 5.2 °C 1008.0 hPa WSW 14.3 km/h 17.7 km/h 76% 0.0 mm 67.00 W/m2
14:00 9.1 °C 5.1 °C 1008.0 hPa WNW 11.1 km/h 22.5 km/h 76% 0.0 mm 172.00 W/m2
14:05 9.4 °C 5.6 °C 1008.4 hPa West 14.3 km/h 19.3 km/h 77% 0.0 mm 199.00 W/m2
14:10 9.4 °C 5.6 °C 1008.4 hPa West 9.7 km/h 19.3 km/h 77% 0.0 mm 156.00 W/m2
14:15 9.4 °C 5.4 °C 1008.4 hPa WSW 20.9 km/h 32.2 km/h 76% 0.0 mm 153.00 W/m2
14:20 9.4 °C 5.2 °C 1008.7 hPa WSW 11.1 km/h 24.1 km/h 75% 0.0 mm 146.00 W/m2
14:25 9.3 °C 4.9 °C 1008.7 hPa West 16.3 km/h 30.6 km/h 74% 0.0 mm 137.00 W/m2
14:30 9.4 °C 5.2 °C 1008.7 hPa WNW 9.7 km/h 25.7 km/h 75% 0.0 mm 130.00 W/m2
14:35 9.4 °C 5.2 °C 1009.0 hPa WSW 16.3 km/h 22.5 km/h 75% 0.0 mm 121.00 W/m2
14:40 9.4 °C 5.2 °C 1009.0 hPa West 13.0 km/h 20.9 km/h 75% 0.0 mm 113.00 W/m2
14:45 9.4 °C 5.2 °C 1009.0 hPa SW 13.0 km/h 20.9 km/h 75% 0.0 mm 105.00 W/m2
14:50 9.4 °C 5.0 °C 1009.0 hPa WSW 17.7 km/h 27.4 km/h 74% 0.0 mm 102.00 W/m2
14:55 9.4 °C 5.0 °C 1009.4 hPa SW 13.0 km/h 20.9 km/h 74% 0.0 mm 95.00 W/m2
15:00 9.4 °C 5.0 °C 1009.4 hPa SW 16.3 km/h 25.7 km/h 74% 0.0 mm 84.00 W/m2
15:05 9.3 °C 4.9 °C 1009.4 hPa WSW 9.7 km/h 17.7 km/h 74% 0.0 mm 39.00 W/m2
15:10 9.2 °C 4.8 °C 1009.7 hPa WSW 16.3 km/h 19.3 km/h 74% 0.0 mm 46.00 W/m2
15:15 9.2 °C 4.8 °C 1009.7 hPa WSW 4.7 km/h 16.1 km/h 74% 0.0 mm 28.00 W/m2
15:20 9.1 °C 4.7 °C 1010.0 hPa WSW 13.0 km/h 19.3 km/h 74% 0.0 mm 23.00 W/m2
15:25 9.1 °C 4.7 °C 1010.0 hPa WSW 14.3 km/h 19.3 km/h 74% 0.0 mm 72.00 W/m2
15:30 9.1 °C 4.9 °C 1010.0 hPa NW 13.0 km/h 25.7 km/h 75% 0.0 mm 70.00 W/m2
15:35 9.1 °C 4.9 °C 1010.4 hPa West 13.0 km/h 24.1 km/h 75% 0.0 mm 49.00 W/m2
15:40 9.1 °C 4.7 °C 1010.4 hPa West 13.0 km/h 20.9 km/h 74% 0.0 mm 30.00 W/m2
15:45 8.9 °C 4.5 °C 1010.7 hPa WNW 16.3 km/h 20.9 km/h 74% 0.0 mm 26.00 W/m2
15:50 8.8 °C 4.4 °C 1010.7 hPa WSW 7.9 km/h 20.9 km/h 74% 0.0 mm 32.00 W/m2
15:56 8.6 °C 4.4 °C 1010.7 hPa WNW 6.4 km/h 16.1 km/h 75% 0.0 mm 21.00 W/m2
16:00 8.4 °C 4.2 °C 1010.7 hPa West 14.3 km/h 14.5 km/h 75% 0.0 mm 19.00 W/m2
16:05 8.3 °C 4.3 °C 1011.1 hPa WNW 4.7 km/h 12.9 km/h 76% 0.0 mm 16.00 W/m2
16:10 8.2 °C 4.4 °C 1011.1 hPa WSW 4.7 km/h 9.7 km/h 77% 0.0 mm 12.00 W/m2
16:15 8.1 °C 4.3 °C 1011.1 hPa WSW 3.2 km/h 8.0 km/h 77% 0.0 mm 11.00 W/m2
16:20 8.0 °C 4.2 °C 1011.1 hPa WSW 6.4 km/h 9.7 km/h 77% 0.0 mm 7.00 W/m2
16:25 7.9 °C 4.3 °C 1011.4 hPa SW 1.4 km/h 9.7 km/h 78% 0.0 mm 5.00 W/m2
16:30 7.8 °C 4.2 °C 1011.4 hPa WSW 4.7 km/h 9.7 km/h 78% 0.0 mm 0.00 W/m2
16:35 7.9 °C 4.5 °C 1011.7 hPa West 6.4 km/h 16.1 km/h 79% 0.0 mm 0.00 W/m2
16:40 7.9 °C 4.3 °C 1011.7 hPa West 7.9 km/h 12.9 km/h 78% 0.0 mm 0.00 W/m2
16:45 8.0 °C 4.6 °C 1011.7 hPa WSW 9.7 km/h 16.1 km/h 79% 0.0 mm 0.00 W/m2
16:50 8.0 °C 4.6 °C 1011.7 hPa WSW 6.4 km/h 9.7 km/h 79% 0.0 mm 0.00 W/m2
16:55 7.9 °C 4.5 °C 1011.7 hPa West 11.1 km/h 12.9 km/h 79% 0.0 mm 0.00 W/m2
17:00 7.9 °C 4.5 °C 1012.1 hPa WSW 6.4 km/h 11.3 km/h 79% 0.0 mm 0.00 W/m2
17:05 7.8 °C 4.4 °C 1012.1 hPa WSW 4.7 km/h 14.5 km/h 79% 0.0 mm 0.00 W/m2
17:10 7.8 °C 4.4 °C 1012.1 hPa WSW 6.4 km/h 11.3 km/h 79% 0.0 mm 0.00 W/m2
17:15 7.7 °C 4.3 °C 1012.1 hPa SW 7.9 km/h 12.9 km/h 79% 0.0 mm 0.00 W/m2
17:20 7.7 °C 4.3 °C 1012.1 hPa WSW 7.9 km/h 12.9 km/h 79% 0.0 mm 0.00 W/m2
17:25 7.7 °C 4.3 °C 1012.4 hPa SW 11.1 km/h 12.9 km/h 79% 0.0 mm 0.00 W/m2
17:30 7.6 °C 4.2 °C 1012.4 hPa WSW 7.9 km/h 12.9 km/h 79% 0.0 mm 0.00 W/m2
17:35 7.6 °C 4.2 °C 1012.4 hPa WSW 4.7 km/h 11.3 km/h 79% 0.0 mm 0.00 W/m2
17:40 7.4 °C 4.0 °C 1012.8 hPa West 4.7 km/h 8.0 km/h 79% 0.0 mm 0.00 W/m2
17:45 7.5 °C 4.1 °C 1012.8 hPa WSW 6.4 km/h 12.9 km/h 79% 0.0 mm 0.00 W/m2
17:50 7.5 °C 4.1 °C 1012.8 hPa WSW 7.9 km/h 12.9 km/h 79% 0.0 mm 0.00 W/m2
17:55 7.5 °C 4.1 °C 1012.8 hPa WSW 7.9 km/h 16.1 km/h 79% 0.0 mm 0.00 W/m2
18:00 7.6 °C 4.0 °C 1013.1 hPa WSW 7.9 km/h 11.3 km/h 78% 0.0 mm 0.00 W/m2
18:05 7.6 °C 4.0 °C 1013.1 hPa WSW 4.7 km/h 11.3 km/h 78% 0.0 mm 0.00 W/m2
18:10 7.6 °C 4.0 °C 1013.1 hPa WSW 11.1 km/h 14.5 km/h 78% 0.0 mm 0.00 W/m2
18:15 7.6 °C 3.8 °C 1013.4 hPa SW 6.4 km/h 9.7 km/h 77% 0.0 mm 0.00 W/m2
18:20 7.6 °C 3.8 °C 1013.4 hPa WSW 6.4 km/h 11.3 km/h 77% 0.0 mm 0.00 W/m2
18:25 7.6 °C 3.8 °C 1013.4 hPa WSW 6.4 km/h 8.0 km/h 77% 0.0 mm 0.00 W/m2
18:30 7.5 °C 3.9 °C 1013.4 hPa WSW 4.7 km/h 8.0 km/h 78% 0.0 mm 0.00 W/m2
18:35 7.5 °C 3.9 °C 1013.8 hPa SW 9.7 km/h 11.3 km/h 78% 0.0 mm 0.00 W/m2
18:40 7.5 °C 3.7 °C 1013.8 hPa WSW 7.9 km/h 11.3 km/h 77% 0.0 mm 0.00 W/m2
18:45 7.5 °C 3.7 °C 1013.8 hPa WSW 4.7 km/h 8.0 km/h 77% 0.0 mm 0.00 W/m2
18:50 7.4 °C 3.8 °C 1014.1 hPa SW 1.4 km/h 11.3 km/h 78% 0.0 mm 0.00 W/m2
18:55 7.3 °C 3.7 °C 1014.1 hPa WSW 3.2 km/h 12.9 km/h 78% 0.0 mm 0.00 W/m2
19:00 7.4 °C 3.8 °C 1014.1 hPa SW 4.7 km/h 8.0 km/h 78% 0.0 mm 0.00 W/m2
19:05 7.4 °C 3.8 °C 1014.1 hPa SSW 1.4 km/h 6.4 km/h 78% 0.0 mm 0.00 W/m2
19:10 7.4 °C 3.8 °C 1014.4 hPa SSW 3.2 km/h 4.8 km/h 78% 0.0 mm 0.00 W/m2
19:15 7.3 °C 3.7 °C 1014.4 hPa SSW 6.4 km/h 6.4 km/h 78% 0.0 mm 0.00 W/m2
19:20 7.3 °C 3.7 °C 1014.1 hPa SW 7.9 km/h 12.9 km/h 78% 0.0 mm 0.00 W/m2
19:25 7.3 °C 3.7 °C 1014.4 hPa South 7.9 km/h 8.0 km/h 78% 0.0 mm 0.00 W/m2
19:30 7.4 °C 3.8 °C 1014.4 hPa SW 4.7 km/h 9.7 km/h 78% 0.0 mm 0.00 W/m2
19:35 7.4 °C 3.8 °C 1014.4 hPa SW 7.9 km/h 11.3 km/h 78% 0.0 mm 0.00 W/m2
19:40 7.4 °C 3.8 °C 1014.4 hPa SW 6.4 km/h 16.1 km/h 78% 0.0 mm 0.00 W/m2
19:45 7.4 °C 4.0 °C 1014.4 hPa SW 6.4 km/h 12.9 km/h 79% 0.0 mm 0.00 W/m2
19:50 7.5 °C 4.1 °C 1014.4 hPa SW 6.4 km/h 12.9 km/h 79% 0.0 mm 0.00 W/m2
19:55 7.6 °C 4.2 °C 1014.8 hPa SW 7.9 km/h 12.9 km/h 79% 0.0 mm 0.00 W/m2
20:00 7.4 °C 4.0 °C 1014.8 hPa SSW 4.7 km/h 11.3 km/h 79% 0.0 mm 0.00 W/m2
20:05 7.3 °C 3.9 °C 1014.8 hPa SW 3.2 km/h 8.0 km/h 79% 0.0 mm 0.00 W/m2
20:10 7.3 °C 3.9 °C 1014.8 hPa SW 4.7 km/h 8.0 km/h 79% 0.0 mm 0.00 W/m2
20:15 7.3 °C 4.1 °C 1014.8 hPa SW 1.4 km/h 6.4 km/h 80% 0.0 mm 0.00 W/m2
20:20 7.3 °C 4.1 °C 1015.1 hPa SSW 4.7 km/h 9.7 km/h 80% 0.0 mm 0.00 W/m2
20:25 7.3 °C 4.1 °C 1015.1 hPa SSW 1.4 km/h 4.8 km/h 80% 0.0 mm 0.00 W/m2
20:30 7.3 °C 4.1 °C 1015.1 hPa South 3.2 km/h 9.7 km/h 80% 0.0 mm 0.00 W/m2
20:35 7.3 °C 4.3 °C 1015.1 hPa SW 6.4 km/h 8.0 km/h 81% 0.0 mm 0.00 W/m2
20:40 7.3 °C 4.3 °C 1015.1 hPa SSW 6.4 km/h 9.7 km/h 81% 0.0 mm 0.00 W/m2
20:45 7.3 °C 4.3 °C 1015.1 hPa SSW 3.2 km/h 6.4 km/h 81% 0.0 mm 0.00 W/m2
20:50 7.2 °C 4.2 °C 1015.5 hPa South 6.4 km/h 6.4 km/h 81% 0.0 mm 0.00 W/m2
20:55 7.3 °C 4.4 °C 1015.5 hPa SSW 6.4 km/h 11.3 km/h 82% 0.0 mm 0.00 W/m2
21:00 7.3 °C 4.4 °C 1015.5 hPa SW 6.4 km/h 9.7 km/h 82% 0.0 mm 0.00 W/m2
21:05 7.3 °C 4.4 °C 1015.5 hPa South 4.7 km/h 11.3 km/h 82% 0.0 mm 0.00 W/m2
21:10 7.3 °C 4.4 °C 1015.5 hPa SSW 7.9 km/h 9.7 km/h 82% 0.0 mm 0.00 W/m2
21:15 7.3 °C 4.4 °C 1015.5 hPa SSW 4.7 km/h 8.0 km/h 82% 0.0 mm 0.00 W/m2
21:20 7.2 °C 4.3 °C 1015.5 hPa SSW 7.9 km/h 8.0 km/h 82% 0.0 mm 0.00 W/m2
21:25 7.2 °C 4.5 °C 1015.5 hPa WSW 11.1 km/h 11.3 km/h 83% 0.0 mm 0.00 W/m2
21:30 7.2 °C 4.5 °C 1015.5 hPa SSW 6.4 km/h 8.0 km/h 83% 0.0 mm 0.00 W/m2
21:35 7.2 °C 4.5 °C 1015.5 hPa SSW 4.7 km/h 6.4 km/h 83% 0.0 mm 0.00 W/m2
21:40 7.2 °C 4.5 °C 1015.5 hPa South 1.4 km/h 9.7 km/h 83% 0.0 mm 0.00 W/m2
21:45 7.2 °C 4.5 °C 1015.5 hPa South 7.9 km/h 8.0 km/h 83% 0.0 mm 0.00 W/m2
21:50 7.2 °C 4.5 °C 1015.8 hPa SSW 1.4 km/h 4.8 km/h 83% 0.0 mm 0.00 W/m2
21:55 7.1 °C 4.4 °C 1015.8 hPa SSW 4.7 km/h 8.0 km/h 83% 0.0 mm 0.00 W/m2
22:00 7.1 °C 4.4 °C 1015.8 hPa Calm   3.2 km/h 83% 0.0 mm 0.00 W/m2
22:05 7.2 °C 4.5 °C 1015.8 hPa Calm   8.0 km/h 83% 0.0 mm 0.00 W/m2
22:10 7.3 °C 4.6 °C 1015.8 hPa Calm   4.8 km/h 83% 0.0 mm 0.00 W/m2
22:15 7.3 °C 4.6 °C 1015.8 hPa WNW 1.4 km/h 3.2 km/h 83% 0.0 mm 0.00 W/m2
22:20 7.2 °C 4.5 °C 1015.8 hPa North 3.2 km/h 6.4 km/h 83% 0.0 mm 0.00 W/m2
22:25 7.2 °C 4.7 °C 1016.1 hPa WNW 1.4 km/h 6.4 km/h 84% 0.0 mm 0.00 W/m2
22:30 7.3 °C 4.8 °C 1016.1 hPa Calm   3.2 km/h 84% 0.0 mm 0.00 W/m2
22:35 7.3 °C 4.8 °C 1016.1 hPa Calm   4.8 km/h 84% 0.0 mm 0.00 W/m2
22:40 7.5 °C 5.0 °C 1016.1 hPa SW 3.2 km/h 6.4 km/h 84% 0.0 mm 0.00 W/m2
22:45 7.8 °C 5.3 °C 1016.1 hPa Calm   6.4 km/h 84% 0.0 mm 0.00 W/m2
22:50 7.6 °C 5.1 °C 1016.1 hPa West 4.7 km/h 4.8 km/h 84% 0.0 mm 0.00 W/m2
22:55 7.4 °C 4.9 °C 1016.1 hPa Calm   3.2 km/h 84% 0.0 mm 0.00 W/m2
23:00 7.4 °C 4.9 °C 1016.1 hPa Calm   3.2 km/h 84% 0.0 mm 0.00 W/m2
23:05 7.6 °C 5.2 °C 1016.1 hPa SSW 1.4 km/h 14.5 km/h 85% 0.0 mm 0.00 W/m2
23:10 7.6 °C 5.2 °C 1016.1 hPa SW 3.2 km/h 4.8 km/h 85% 0.0 mm 0.00 W/m2
23:15 7.6 °C 5.2 °C 1016.1 hPa South 3.2 km/h 9.7 km/h 85% 0.0 mm 0.00 W/m2
23:20 7.6 °C 5.2 °C 1016.1 hPa SW 1.4 km/h 4.8 km/h 85% 0.0 mm 0.00 W/m2
23:25 7.6 °C 5.2 °C 1016.5 hPa SW 1.4 km/h 4.8 km/h 85% 0.0 mm 0.00 W/m2
23:30 7.6 °C 5.2 °C 1016.1 hPa SSW 1.4 km/h 6.4 km/h 85% 0.0 mm 0.00 W/m2
23:35 7.6 °C 5.2 °C 1016.5 hPa SSW 3.2 km/h 4.8 km/h 85% 0.0 mm 0.00 W/m2
23:40 7.6 °C 5.2 °C 1016.5 hPa SSW 3.2 km/h 4.8 km/h 85% 0.0 mm 0.00 W/m2
23:45 7.6 °C 5.2 °C 1016.5 hPa SSW 1.4 km/h 6.4 km/h 85% 0.0 mm 0.00 W/m2
23:50 7.6 °C 5.2 °C 1016.5 hPa SSW 1.4 km/h 1.6 km/h 85% 0.0 mm 0.00 W/m2
23:55 7.6 °C 5.2 °C 1016.1 hPa SSW 3.2 km/h 4.8 km/h 85% 0.0 mm 0.00 W/m2